Terminal Aerodrome Forecast
Issued by NWS Austin/San Antonio, TX

Home | Current Version | Previous Version | Text Only | Print | Product List | Glossary On
Versions: 1 2 3 4 5 6 7 8 9 10 11 12 13 14 15 16 17 18 19 20 21 22
000
FTUS44 KEWX 010535
TAFSAT
TAF
KSAT 010535Z 0106/0212 06005KT P6SM SCT250
     FM011000 05005KT P6SM OVC010
     FM011700 05012KT P6SM BKN025 PROB30 0201/0206 4SM TSRA BR
      OVC025CB
     FM020600 36015KT P6SM OVC025=

USA.gov is the U.S. government's official web portal to all federal, state and local government web resources and services.